Thunder Hawk, South Dakota
Current Conditions -  °F | °C
As of 7:27 AM on Thursday 18 Dec 2014 (Local Time) from KHEI Reporting Station
Overcast Overcast  
Wind Chill: 16°   Ceiling: 1400
Heat Index: 23°   Visibility: 8mi
Dew Point: 20°   Wind: 6mph
Humidity: 88%   Direction: 200°SSW
Pressure: 29.98"   Gusts: NA
Location:  45.8079°N, 102.334°W
Report Text: KHEI 181427Z AUTO 20005KT 8SM OVC014 M05/M07 A2998 RMK AO2 T10501067
Loading
Personal Weather Stations






























Interactive Weather Map New forecast layout! Learn more

10-Day Weather Forecast

Advertisements
Track Severe Weather on mobile